sensor_id;sensor_type;location;lat;lon;timestamp;P1;durP1;ratioP1;P2;durP2;ratioP2
82705;SDS011;72428;41.978;21.464;2023-09-19T00:01:19;27.33;;;16.85;;
82705;SDS011;72428;41.978;21.464;2023-09-19T00:03:45;22.92;;;16.58;;
82705;SDS011;72428;41.978;21.464;2023-09-19T00:06:12;28.48;;;17.88;;
82705;SDS011;72428;41.978;21.464;2023-09-19T00:08:40;29.67;;;17.30;;
82705;SDS011;72428;41.978;21.464;2023-09-19T00:11:09;32.53;;;18.30;;
82705;SDS011;72428;41.978;21.464;2023-09-19T00:13:36;29.02;;;17.98;;
82705;SDS011;72428;41.978;21.464;2023-09-19T00:16:07;27.42;;;18.42;;
82705;SDS011;72428;41.978;21.464;2023-09-19T00:18:35;23.90;;;15.13;;
82705;SDS011;72428;41.978;21.464;2023-09-19T00:21:01;23.38;;;16.77;;
82705;SDS011;72428;41.978;21.464;2023-09-19T00:23:29;27.75;;;17.20;;
82705;SDS011;72428;41.978;21.464;2023-09-19T00:25:59;26.00;;;18.15;;
82705;SDS011;72428;41.978;21.464;2023-09-19T00:28:28;35.20;;;18.45;;
82705;SDS011;72428;41.978;21.464;2023-09-19T00:30:55;26.23;;;17.02;;
82705;SDS011;72428;41.978;21.464;2023-09-19T00:33:22;31.92;;;17.35;;
82705;SDS011;72428;41.978;21.464;2023-09-19T00:35:49;22.10;;;16.75;;
82705;SDS011;72428;41.978;21.464;2023-09-19T00:38:16;23.02;;;16.40;;
82705;SDS011;72428;41.978;21.464;2023-09-19T00:40:45;25.02;;;16.25;;
82705;SDS011;72428;41.978;21.464;2023-09-19T00:43:11;24.65;;;15.88;;
82705;SDS011;72428;41.978;21.464;2023-09-19T00:45:37;24.15;;;16.55;;
82705;SDS011;72428;41.978;21.464;2023-09-19T00:48:07;26.92;;;18.00;;
82705;SDS011;72428;41.978;21.464;2023-09-19T00:50:34;27.13;;;15.43;;
82705;SDS011;72428;41.978;21.464;2023-09-19T00:53:00;31.85;;;16.52;;
82705;SDS011;72428;41.978;21.464;2023-09-19T00:55:28;24.30;;;15.85;;
82705;SDS011;72428;41.978;21.464;2023-09-19T01:00:23;28.20;;;16.45;;
82705;SDS011;72428;41.978;21.464;2023-09-19T01:02:50;21.45;;;15.65;;
82705;SDS011;72428;41.978;21.464;2023-09-19T01:05:16;27.42;;;15.90;;
82705;SDS011;72428;41.978;21.464;2023-09-19T01:07:44;26.35;;;16.15;;
82705;SDS011;72428;41.978;21.464;2023-09-19T01:10:12;26.10;;;15.20;;
82705;SDS011;72428;41.978;21.464;2023-09-19T01:15:21;28.58;;;16.13;;
82705;SDS011;72428;41.978;21.464;2023-09-19T01:18:11;28.58;;;15.32;;
82705;SDS011;72428;41.978;21.464;2023-09-19T01:20:44;24.35;;;14.57;;
82705;SDS011;72428;41.978;21.464;2023-09-19T01:26:30;23.35;;;16.17;;
82705;SDS011;72428;41.978;21.464;2023-09-19T01:29:10;24.05;;;16.00;;
82705;SDS011;72428;41.978;21.464;2023-09-19T01:31:39;22.90;;;15.65;;
82705;SDS011;72428;41.978;21.464;2023-09-19T01:34:07;26.83;;;15.50;;
82705;SDS011;72428;41.978;21.464;2023-09-19T01:36:37;21.73;;;15.25;;
82705;SDS011;72428;41.978;21.464;2023-09-19T01:39:07;25.73;;;16.85;;
82705;SDS011;72428;41.978;21.464;2023-09-19T01:44:04;24.42;;;15.50;;
82705;SDS011;72428;41.978;21.464;2023-09-19T01:46:35;22.65;;;16.25;;
82705;SDS011;72428;41.978;21.464;2023-09-19T01:54:30;21.90;;;15.40;;
82705;SDS011;72428;41.978;21.464;2023-09-19T01:59:48;24.25;;;14.93;;
82705;SDS011;72428;41.978;21.464;2023-09-19T02:02:16;29.00;;;15.48;;
82705;SDS011;72428;41.978;21.464;2023-09-19T02:04:43;26.20;;;16.27;;
82705;SDS011;72428;41.978;21.464;2023-09-19T02:07:09;25.13;;;15.95;;
82705;SDS011;72428;41.978;21.464;2023-09-19T02:09:35;32.10;;;15.45;;
82705;SDS011;72428;41.978;21.464;2023-09-19T02:12:04;32.65;;;14.32;;
82705;SDS011;72428;41.978;21.464;2023-09-19T02:14:30;32.55;;;15.60;;
82705;SDS011;72428;41.978;21.464;2023-09-19T02:16:57;30.13;;;15.15;;
82705;SDS011;72428;41.978;21.464;2023-09-19T02:19:23;28.98;;;16.45;;
82705;SDS011;72428;41.978;21.464;2023-09-19T02:21:49;26.25;;;15.25;;
82705;SDS011;72428;41.978;21.464;2023-09-19T02:24:15;22.08;;;14.55;;
82705;SDS011;72428;41.978;21.464;2023-09-19T02:26:41;25.08;;;15.52;;
82705;SDS011;72428;41.978;21.464;2023-09-19T02:29:07;22.08;;;15.85;;
82705;SDS011;72428;41.978;21.464;2023-09-19T02:31:37;25.05;;;14.98;;
82705;SDS011;72428;41.978;21.464;2023-09-19T02:34:04;22.67;;;14.43;;
82705;SDS011;72428;41.978;21.464;2023-09-19T02:36:31;23.70;;;15.35;;
82705;SDS011;72428;41.978;21.464;2023-09-19T02:38:58;26.40;;;15.13;;
82705;SDS011;72428;41.978;21.464;2023-09-19T02:41:24;23.83;;;16.05;;
82705;SDS011;72428;41.978;21.464;2023-09-19T02:43:50;23.40;;;15.43;;
82705;SDS011;72428;41.978;21.464;2023-09-19T02:46:17;25.98;;;16.05;;
82705;SDS011;72428;41.978;21.464;2023-09-19T02:48:43;23.63;;;15.57;;
82705;SDS011;72428;41.978;21.464;2023-09-19T02:51:09;22.33;;;15.07;;
82705;SDS011;72428;41.978;21.464;2023-09-19T02:53:35;24.02;;;15.75;;
82705;SDS011;72428;41.978;21.464;2023-09-19T02:56:01;28.30;;;15.75;;
82705;SDS011;72428;41.978;21.464;2023-09-19T02:58:29;23.45;;;14.73;;
82705;SDS011;72428;41.978;21.464;2023-09-19T03:00:55;22.38;;;15.43;;
82705;SDS011;72428;41.978;21.464;2023-09-19T03:03:22;22.75;;;15.52;;
82705;SDS011;72428;41.978;21.464;2023-09-19T03:05:49;21.00;;;13.93;;
82705;SDS011;72428;41.978;21.464;2023-09-19T03:08:16;20.88;;;14.82;;
82705;SDS011;72428;41.978;21.464;2023-09-19T03:10:42;24.92;;;16.63;;
82705;SDS011;72428;41.978;21.464;2023-09-19T03:13:08;22.95;;;16.55;;
82705;SDS011;72428;41.978;21.464;2023-09-19T03:15:35;21.38;;;14.98;;
82705;SDS011;72428;41.978;21.464;2023-09-19T03:18:04;22.17;;;15.18;;
82705;SDS011;72428;41.978;21.464;2023-09-19T03:20:31;20.67;;;16.50;;
82705;SDS011;72428;41.978;21.464;2023-09-19T03:22:57;27.45;;;16.30;;
82705;SDS011;72428;41.978;21.464;2023-09-19T03:25:23;26.48;;;16.90;;
82705;SDS011;72428;41.978;21.464;2023-09-19T03:27:49;27.58;;;17.40;;
82705;SDS011;72428;41.978;21.464;2023-09-19T03:30:15;24.98;;;16.35;;
82705;SDS011;72428;41.978;21.464;2023-09-19T03:32:45;24.60;;;16.90;;
82705;SDS011;72428;41.978;21.464;2023-09-19T03:35:12;23.92;;;15.50;;
82705;SDS011;72428;41.978;21.464;2023-09-19T03:37:40;24.65;;;16.33;;
82705;SDS011;72428;41.978;21.464;2023-09-19T03:40:07;27.70;;;16.20;;
82705;SDS011;72428;41.978;21.464;2023-09-19T03:42:33;29.38;;;18.95;;
82705;SDS011;72428;41.978;21.464;2023-09-19T03:45:01;24.88;;;17.50;;
82705;SDS011;72428;41.978;21.464;2023-09-19T03:47:29;30.88;;;20.98;;
82705;SDS011;72428;41.978;21.464;2023-09-19T03:49:55;21.77;;;16.73;;
82705;SDS011;72428;41.978;21.464;2023-09-19T03:52:21;23.15;;;16.05;;
82705;SDS011;72428;41.978;21.464;2023-09-19T03:54:47;23.75;;;17.40;;
82705;SDS011;72428;41.978;21.464;2023-09-19T03:57:14;24.40;;;17.08;;
82705;SDS011;72428;41.978;21.464;2023-09-19T03:59:45;24.30;;;16.40;;
82705;SDS011;72428;41.978;21.464;2023-09-19T04:02:12;28.83;;;16.48;;
82705;SDS011;72428;41.978;21.464;2023-09-19T04:04:47;31.13;;;17.75;;
82705;SDS011;72428;41.978;21.464;2023-09-19T04:07:13;25.35;;;16.65;;
82705;SDS011;72428;41.978;21.464;2023-09-19T04:09:39;27.77;;;17.58;;
82705;SDS011;72428;41.978;21.464;2023-09-19T04:12:06;31.38;;;17.88;;
82705;SDS011;72428;41.978;21.464;2023-09-19T04:14:36;25.77;;;17.48;;
82705;SDS011;72428;41.978;21.464;2023-09-19T04:17:02;27.60;;;18.30;;
82705;SDS011;72428;41.978;21.464;2023-09-19T04:19:30;358.85;;;40.95;;
82705;SDS011;72428;41.978;21.464;2023-09-19T04:21:56;28.33;;;17.30;;
82705;SDS011;72428;41.978;21.464;2023-09-19T04:24:22;25.65;;;18.08;;
82705;SDS011;72428;41.978;21.464;2023-09-19T04:26:48;33.42;;;18.75;;
82705;SDS011;72428;41.978;21.464;2023-09-19T04:29:14;26.10;;;17.42;;
82705;SDS011;72428;41.978;21.464;2023-09-19T04:31:40;29.70;;;17.70;;
82705;SDS011;72428;41.978;21.464;2023-09-19T04:34:10;26.13;;;18.60;;
82705;SDS011;72428;41.978;21.464;2023-09-19T04:36:42;29.48;;;18.92;;
82705;SDS011;72428;41.978;21.464;2023-09-19T04:39:08;24.60;;;18.70;;
82705;SDS011;72428;41.978;21.464;2023-09-19T04:41:37;24.52;;;17.33;;
82705;SDS011;72428;41.978;21.464;2023-09-19T04:44:06;28.77;;;18.92;;
82705;SDS011;72428;41.978;21.464;2023-09-19T04:46:33;24.58;;;17.55;;
82705;SDS011;72428;41.978;21.464;2023-09-19T04:48:59;23.75;;;15.52;;
82705;SDS011;72428;41.978;21.464;2023-09-19T04:51:25;30.20;;;18.77;;
82705;SDS011;72428;41.978;21.464;2023-09-19T04:53:54;26.77;;;17.88;;
82705;SDS011;72428;41.978;21.464;2023-09-19T04:56:20;25.55;;;18.05;;
82705;SDS011;72428;41.978;21.464;2023-09-19T04:58:48;29.20;;;17.30;;
82705;SDS011;72428;41.978;21.464;2023-09-19T05:01:14;27.58;;;19.23;;
82705;SDS011;72428;41.978;21.464;2023-09-19T05:03:40;29.90;;;18.55;;
82705;SDS011;72428;41.978;21.464;2023-09-19T05:06:07;31.30;;;17.30;;
82705;SDS011;72428;41.978;21.464;2023-09-19T05:08:33;34.95;;;18.90;;
82705;SDS011;72428;41.978;21.464;2023-09-19T05:11:01;40.72;;;18.55;;
82705;SDS011;72428;41.978;21.464;2023-09-19T05:13:27;24.15;;;16.98;;
82705;SDS011;72428;41.978;21.464;2023-09-19T05:15:53;40.80;;;18.65;;
82705;SDS011;72428;41.978;21.464;2023-09-19T05:18:19;31.00;;;19.63;;
82705;SDS011;72428;41.978;21.464;2023-09-19T05:20:47;28.70;;;18.65;;
82705;SDS011;72428;41.978;21.464;2023-09-19T05:23:14;34.47;;;24.27;;
82705;SDS011;72428;41.978;21.464;2023-09-19T05:25:41;25.13;;;16.75;;
82705;SDS011;72428;41.978;21.464;2023-09-19T05:28:11;26.88;;;19.17;;
82705;SDS011;72428;41.978;21.464;2023-09-19T05:30:40;27.85;;;17.90;;
82705;SDS011;72428;41.978;21.464;2023-09-19T05:33:08;22.90;;;16.88;;
82705;SDS011;72428;41.978;21.464;2023-09-19T05:35:34;38.25;;;18.58;;
82705;SDS011;72428;41.978;21.464;2023-09-19T05:38:04;29.17;;;18.63;;
82705;SDS011;72428;41.978;21.464;2023-09-19T05:40:34;27.55;;;18.17;;
82705;SDS011;72428;41.978;21.464;2023-09-19T05:43:00;24.70;;;17.55;;
82705;SDS011;72428;41.978;21.464;2023-09-19T05:45:28;32.42;;;17.77;;
82705;SDS011;72428;41.978;21.464;2023-09-19T05:47:55;26.27;;;18.15;;
82705;SDS011;72428;41.978;21.464;2023-09-19T05:50:29;26.10;;;18.55;;
82705;SDS011;72428;41.978;21.464;2023-09-19T05:52:57;26.98;;;17.33;;
82705;SDS011;72428;41.978;21.464;2023-09-19T05:55:23;26.67;;;18.42;;
82705;SDS011;72428;41.978;21.464;2023-09-19T05:57:53;29.02;;;18.40;;
82705;SDS011;72428;41.978;21.464;2023-09-19T06:00:19;39.63;;;19.02;;
82705;SDS011;72428;41.978;21.464;2023-09-19T06:02:51;43.33;;;18.33;;
82705;SDS011;72428;41.978;21.464;2023-09-19T06:05:17;26.63;;;19.20;;
82705;SDS011;72428;41.978;21.464;2023-09-19T06:07:44;25.13;;;16.77;;
82705;SDS011;72428;41.978;21.464;2023-09-19T06:10:10;31.38;;;15.93;;
82705;SDS011;72428;41.978;21.464;2023-09-19T06:12:39;28.67;;;17.63;;
82705;SDS011;72428;41.978;21.464;2023-09-19T06:15:05;31.92;;;18.35;;
82705;SDS011;72428;41.978;21.464;2023-09-19T06:17:40;38.08;;;27.40;;
82705;SDS011;72428;41.978;21.464;2023-09-19T06:20:06;32.25;;;24.45;;
82705;SDS011;72428;41.978;21.464;2023-09-19T06:22:39;33.75;;;18.65;;
82705;SDS011;72428;41.978;21.464;2023-09-19T06:25:07;24.30;;;16.80;;
82705;SDS011;72428;41.978;21.464;2023-09-19T06:27:33;27.80;;;17.13;;
82705;SDS011;72428;41.978;21.464;2023-09-19T06:30:01;23.60;;;16.98;;
82705;SDS011;72428;41.978;21.464;2023-09-19T06:32:28;26.73;;;18.05;;
82705;SDS011;72428;41.978;21.464;2023-09-19T06:34:54;24.00;;;16.98;;
82705;SDS011;72428;41.978;21.464;2023-09-19T06:37:21;25.38;;;15.73;;
82705;SDS011;72428;41.978;21.464;2023-09-19T06:39:47;28.50;;;17.75;;
82705;SDS011;72428;41.978;21.464;2023-09-19T06:42:14;24.48;;;15.35;;
82705;SDS011;72428;41.978;21.464;2023-09-19T06:44:42;23.45;;;16.20;;
82705;SDS011;72428;41.978;21.464;2023-09-19T06:47:08;25.10;;;17.13;;
82705;SDS011;72428;41.978;21.464;2023-09-19T06:49:35;27.00;;;17.20;;
82705;SDS011;72428;41.978;21.464;2023-09-19T06:52:01;34.30;;;17.13;;
82705;SDS011;72428;41.978;21.464;2023-09-19T06:54:28;30.42;;;17.65;;
82705;SDS011;72428;41.978;21.464;2023-09-19T06:57:00;22.65;;;16.90;;
82705;SDS011;72428;41.978;21.464;2023-09-19T06:59:26;35.58;;;17.35;;
82705;SDS011;72428;41.978;21.464;2023-09-19T07:01:52;25.55;;;17.48;;
82705;SDS011;72428;41.978;21.464;2023-09-19T07:04:18;28.50;;;17.10;;
82705;SDS011;72428;41.978;21.464;2023-09-19T07:06:49;24.30;;;15.88;;
82705;SDS011;72428;41.978;21.464;2023-09-19T07:09:15;28.00;;;16.67;;
82705;SDS011;72428;41.978;21.464;2023-09-19T07:11:45;27.45;;;15.75;;
82705;SDS011;72428;41.978;21.464;2023-09-19T07:14:13;28.00;;;16.88;;
82705;SDS011;72428;41.978;21.464;2023-09-19T07:16:39;30.40;;;17.60;;
82705;SDS011;72428;41.978;21.464;2023-09-19T07:19:07;47.85;;;16.80;;
82705;SDS011;72428;41.978;21.464;2023-09-19T07:21:33;30.75;;;17.23;;
82705;SDS011;72428;41.978;21.464;2023-09-19T07:24:00;25.63;;;14.93;;
82705;SDS011;72428;41.978;21.464;2023-09-19T07:26:29;24.38;;;15.48;;
82705;SDS011;72428;41.978;21.464;2023-09-19T07:28:56;25.15;;;15.02;;
82705;SDS011;72428;41.978;21.464;2023-09-19T07:31:28;22.23;;;13.98;;
82705;SDS011;72428;41.978;21.464;2023-09-19T07:33:56;19.48;;;14.20;;
82705;SDS011;72428;41.978;21.464;2023-09-19T07:36:22;21.23;;;14.10;;
82705;SDS011;72428;41.978;21.464;2023-09-19T07:38:49;22.63;;;14.43;;
82705;SDS011;72428;41.978;21.464;2023-09-19T07:41:15;22.10;;;14.65;;
82705;SDS011;72428;41.978;21.464;2023-09-19T07:43:41;22.70;;;15.00;;
82705;SDS011;72428;41.978;21.464;2023-09-19T07:46:09;23.38;;;14.05;;
82705;SDS011;72428;41.978;21.464;2023-09-19T07:48:36;21.70;;;13.80;;
82705;SDS011;72428;41.978;21.464;2023-09-19T07:51:06;20.08;;;13.25;;
82705;SDS011;72428;41.978;21.464;2023-09-19T07:53:33;23.98;;;13.93;;
82705;SDS011;72428;41.978;21.464;2023-09-19T07:56:06;24.48;;;14.77;;
82705;SDS011;72428;41.978;21.464;2023-09-19T07:58:33;20.10;;;13.68;;
82705;SDS011;72428;41.978;21.464;2023-09-19T08:01:05;23.42;;;14.20;;
82705;SDS011;72428;41.978;21.464;2023-09-19T08:03:32;22.80;;;12.68;;
82705;SDS011;72428;41.978;21.464;2023-09-19T08:05:59;19.77;;;12.85;;
82705;SDS011;72428;41.978;21.464;2023-09-19T08:08:26;20.10;;;13.23;;
82705;SDS011;72428;41.978;21.464;2023-09-19T08:10:53;23.58;;;12.35;;
82705;SDS011;72428;41.978;21.464;2023-09-19T08:13:21;19.75;;;11.75;;
82705;SDS011;72428;41.978;21.464;2023-09-19T08:15:47;18.17;;;12.73;;
82705;SDS011;72428;41.978;21.464;2023-09-19T08:18:14;19.10;;;12.65;;
82705;SDS011;72428;41.978;21.464;2023-09-19T08:20:41;17.95;;;12.90;;
82705;SDS011;72428;41.978;21.464;2023-09-19T08:23:11;20.10;;;13.73;;
82705;SDS011;72428;41.978;21.464;2023-09-19T08:25:37;16.45;;;12.13;;
82705;SDS011;72428;41.978;21.464;2023-09-19T08:28:05;18.85;;;12.55;;
82705;SDS011;72428;41.978;21.464;2023-09-19T08:30:33;21.42;;;13.65;;
82705;SDS011;72428;41.978;21.464;2023-09-19T08:33:00;16.45;;;11.95;;
82705;SDS011;72428;41.978;21.464;2023-09-19T08:35:27;20.02;;;11.18;;
82705;SDS011;72428;41.978;21.464;2023-09-19T08:37:54;16.75;;;10.70;;
82705;SDS011;72428;41.978;21.464;2023-09-19T08:40:20;17.70;;;10.95;;
82705;SDS011;72428;41.978;21.464;2023-09-19T08:42:50;19.98;;;12.10;;
82705;SDS011;72428;41.978;21.464;2023-09-19T08:45:16;16.90;;;11.90;;
82705;SDS011;72428;41.978;21.464;2023-09-19T08:50:26;22.70;;;11.57;;
82705;SDS011;72428;41.978;21.464;2023-09-19T08:52:53;18.38;;;11.20;;
82705;SDS011;72428;41.978;21.464;2023-09-19T08:55:26;24.40;;;11.52;;
82705;SDS011;72428;41.978;21.464;2023-09-19T08:58:03;13.77;;;10.77;;
82705;SDS011;72428;41.978;21.464;2023-09-19T09:00:31;19.27;;;11.10;;
82705;SDS011;72428;41.978;21.464;2023-09-19T09:02:58;21.95;;;10.75;;
82705;SDS011;72428;41.978;21.464;2023-09-19T09:05:25;20.27;;;12.50;;
82705;SDS011;72428;41.978;21.464;2023-09-19T09:07:53;19.38;;;11.30;;
82705;SDS011;72428;41.978;21.464;2023-09-19T09:10:22;26.70;;;12.25;;
82705;SDS011;72428;41.978;21.464;2023-09-19T09:12:50;14.85;;;10.88;;
82705;SDS011;72428;41.978;21.464;2023-09-19T09:15:17;22.48;;;12.10;;
82705;SDS011;72428;41.978;21.464;2023-09-19T09:17:55;18.73;;;11.55;;
82705;SDS011;72428;41.978;21.464;2023-09-19T09:20:22;25.08;;;11.77;;
82705;SDS011;72428;41.978;21.464;2023-09-19T09:22:51;15.20;;;10.63;;
82705;SDS011;72428;41.978;21.464;2023-09-19T09:25:19;18.02;;;10.18;;
82705;SDS011;72428;41.978;21.464;2023-09-19T09:28:08;16.38;;;11.02;;
82705;SDS011;72428;41.978;21.464;2023-09-19T09:30:35;16.05;;;11.52;;
82705;SDS011;72428;41.978;21.464;2023-09-19T09:33:08;15.52;;;10.23;;
82705;SDS011;72428;41.978;21.464;2023-09-19T09:35:36;23.83;;;11.43;;
82705;SDS011;72428;41.978;21.464;2023-09-19T09:38:02;16.98;;;11.35;;
82705;SDS011;72428;41.978;21.464;2023-09-19T09:43:35;15.10;;;10.25;;
82705;SDS011;72428;41.978;21.464;2023-09-19T09:46:06;19.08;;;10.80;;
82705;SDS011;72428;41.978;21.464;2023-09-19T09:49:01;17.48;;;11.63;;
82705;SDS011;72428;41.978;21.464;2023-09-19T09:52:01;17.10;;;10.50;;
82705;SDS011;72428;41.978;21.464;2023-09-19T09:55:03;18.85;;;10.70;;
82705;SDS011;72428;41.978;21.464;2023-09-19T09:57:33;16.30;;;10.80;;
82705;SDS011;72428;41.978;21.464;2023-09-19T09:59:59;19.40;;;10.25;;
82705;SDS011;72428;41.978;21.464;2023-09-19T10:02:38;16.23;;;10.85;;
82705;SDS011;72428;41.978;21.464;2023-09-19T10:05:13;18.17;;;11.07;;
82705;SDS011;72428;41.978;21.464;2023-09-19T10:07:52;19.73;;;11.55;;
82705;SDS011;72428;41.978;21.464;2023-09-19T10:10:43;18.95;;;13.43;;
82705;SDS011;72428;41.978;21.464;2023-09-19T10:13:19;27.95;;;13.55;;
82705;SDS011;72428;41.978;21.464;2023-09-19T10:15:49;13.40;;;10.18;;
82705;SDS011;72428;41.978;21.464;2023-09-19T10:20:46;17.55;;;9.70;;
82705;SDS011;72428;41.978;21.464;2023-09-19T10:23:13;17.73;;;10.20;;
82705;SDS011;72428;41.978;21.464;2023-09-19T10:25:43;16.67;;;9.15;;
82705;SDS011;72428;41.978;21.464;2023-09-19T10:28:13;16.90;;;11.15;;
82705;SDS011;72428;41.978;21.464;2023-09-19T10:33:12;22.38;;;10.15;;
82705;SDS011;72428;41.978;21.464;2023-09-19T10:35:40;14.50;;;10.95;;
82705;SDS011;72428;41.978;21.464;2023-09-19T10:38:09;20.48;;;9.93;;
82705;SDS011;72428;41.978;21.464;2023-09-19T10:40:36;20.58;;;10.07;;
82705;SDS011;72428;41.978;21.464;2023-09-19T10:43:05;18.42;;;9.50;;
82705;SDS011;72428;41.978;21.464;2023-09-19T10:45:34;20.48;;;10.73;;
82705;SDS011;72428;41.978;21.464;2023-09-19T10:48:03;19.67;;;10.80;;
82705;SDS011;72428;41.978;21.464;2023-09-19T10:50:33;15.25;;;10.18;;
82705;SDS011;72428;41.978;21.464;2023-09-19T10:53:02;15.27;;;9.80;;
82705;SDS011;72428;41.978;21.464;2023-09-19T10:55:30;14.93;;;9.50;;
82705;SDS011;72428;41.978;21.464;2023-09-19T10:57:57;15.07;;;9.60;;
82705;SDS011;72428;41.978;21.464;2023-09-19T11:00:25;13.63;;;9.05;;
82705;SDS011;72428;41.978;21.464;2023-09-19T11:05:40;18.77;;;11.60;;
82705;SDS011;72428;41.978;21.464;2023-09-19T11:08:07;15.85;;;11.73;;
82705;SDS011;72428;41.978;21.464;2023-09-19T11:10:46;25.80;;;11.27;;
82705;SDS011;72428;41.978;21.464;2023-09-19T11:13:25;19.65;;;11.80;;
82705;SDS011;72428;41.978;21.464;2023-09-19T11:26:57;20.10;;;12.25;;
82705;SDS011;72428;41.978;21.464;2023-09-19T11:29:34;15.25;;;10.52;;
82705;SDS011;72428;41.978;21.464;2023-09-19T11:32:01;36.95;;;12.27;;
82705;SDS011;72428;41.978;21.464;2023-09-19T11:39:37;20.40;;;9.43;;
82705;SDS011;72428;41.978;21.464;2023-09-19T11:44:48;11.38;;;8.25;;
82705;SDS011;72428;41.978;21.464;2023-09-19T11:47:17;20.38;;;9.05;;
82705;SDS011;72428;41.978;21.464;2023-09-19T11:49:44;10.48;;;8.07;;
82705;SDS011;72428;41.978;21.464;2023-09-19T11:52:18;14.40;;;7.88;;
82705;SDS011;72428;41.978;21.464;2023-09-19T11:54:54;11.70;;;8.60;;
82705;SDS011;72428;41.978;21.464;2023-09-19T11:57:22;11.52;;;7.65;;
82705;SDS011;72428;41.978;21.464;2023-09-19T11:59:48;13.23;;;7.70;;
82705;SDS011;72428;41.978;21.464;2023-09-19T12:02:32;11.90;;;8.25;;
82705;SDS011;72428;41.978;21.464;2023-09-19T12:05:01;15.98;;;7.78;;
82705;SDS011;72428;41.978;21.464;2023-09-19T12:07:28;10.05;;;7.38;;
82705;SDS011;72428;41.978;21.464;2023-09-19T12:10:04;10.48;;;6.72;;
82705;SDS011;72428;41.978;21.464;2023-09-19T12:12:33;12.88;;;7.60;;
82705;SDS011;72428;41.978;21.464;2023-09-19T12:14:59;13.95;;;8.05;;
82705;SDS011;72428;41.978;21.464;2023-09-19T12:17:35;11.68;;;7.40;;
82705;SDS011;72428;41.978;21.464;2023-09-19T12:20:02;14.70;;;9.20;;
82705;SDS011;72428;41.978;21.464;2023-09-19T12:22:42;14.82;;;8.07;;
82705;SDS011;72428;41.978;21.464;2023-09-19T12:25:08;12.98;;;7.50;;
82705;SDS011;72428;41.978;21.464;2023-09-19T12:27:42;13.55;;;8.45;;
82705;SDS011;72428;41.978;21.464;2023-09-19T12:30:09;17.23;;;8.60;;
82705;SDS011;72428;41.978;21.464;2023-09-19T12:32:35;12.43;;;7.10;;
82705;SDS011;72428;41.978;21.464;2023-09-19T12:35:02;13.07;;;7.80;;
82705;SDS011;72428;41.978;21.464;2023-09-19T12:37:32;12.20;;;7.25;;
82705;SDS011;72428;41.978;21.464;2023-09-19T12:40:07;11.38;;;6.90;;
82705;SDS011;72428;41.978;21.464;2023-09-19T12:42:40;13.07;;;7.20;;
82705;SDS011;72428;41.978;21.464;2023-09-19T12:45:07;13.48;;;6.97;;
82705;SDS011;72428;41.978;21.464;2023-09-19T12:47:34;10.57;;;6.80;;
82705;SDS011;72428;41.978;21.464;2023-09-19T12:50:11;12.57;;;7.18;;
82705;SDS011;72428;41.978;21.464;2023-09-19T12:55:19;12.05;;;6.55;;
82705;SDS011;72428;41.978;21.464;2023-09-19T12:57:56;16.20;;;8.40;;
82705;SDS011;72428;41.978;21.464;2023-09-19T13:00:30;40.30;;;9.95;;
82705;SDS011;72428;41.978;21.464;2023-09-19T13:05:59;16.75;;;7.47;;
82705;SDS011;72428;41.978;21.464;2023-09-19T13:08:31;20.48;;;13.02;;
82705;SDS011;72428;41.978;21.464;2023-09-19T13:13:32;13.38;;;7.22;;
82705;SDS011;72428;41.978;21.464;2023-09-19T13:16:00;12.30;;;6.88;;
82705;SDS011;72428;41.978;21.464;2023-09-19T13:18:27;39.92;;;10.35;;
82705;SDS011;72428;41.978;21.464;2023-09-19T13:21:07;23.77;;;10.07;;
82705;SDS011;72428;41.978;21.464;2023-09-19T13:23:40;24.73;;;14.98;;
82705;SDS011;72428;41.978;21.464;2023-09-19T13:26:07;18.67;;;8.63;;
82705;SDS011;72428;41.978;21.464;2023-09-19T13:28:33;12.18;;;6.43;;
82705;SDS011;72428;41.978;21.464;2023-09-19T13:31:00;10.23;;;5.72;;
82705;SDS011;72428;41.978;21.464;2023-09-19T13:33:26;12.85;;;8.90;;
82705;SDS011;72428;41.978;21.464;2023-09-19T13:35:53;11.50;;;5.70;;
82705;SDS011;72428;41.978;21.464;2023-09-19T13:38:20;12.85;;;6.15;;
82705;SDS011;72428;41.978;21.464;2023-09-19T13:40:47;9.82;;;6.13;;
82705;SDS011;72428;41.978;21.464;2023-09-19T13:43:13;10.88;;;5.90;;
82705;SDS011;72428;41.978;21.464;2023-09-19T13:45:40;11.55;;;5.95;;
82705;SDS011;72428;41.978;21.464;2023-09-19T13:48:09;12.50;;;5.95;;
82705;SDS011;72428;41.978;21.464;2023-09-19T13:50:38;15.02;;;5.80;;
82705;SDS011;72428;41.978;21.464;2023-09-19T13:53:07;11.05;;;5.82;;
82705;SDS011;72428;41.978;21.464;2023-09-19T13:55:34;12.23;;;5.95;;
82705;SDS011;72428;41.978;21.464;2023-09-19T13:58:02;11.75;;;5.93;;
82705;SDS011;72428;41.978;21.464;2023-09-19T14:00:30;14.43;;;6.30;;
82705;SDS011;72428;41.978;21.464;2023-09-19T14:02:59;19.27;;;6.72;;
82705;SDS011;72428;41.978;21.464;2023-09-19T14:05:26;12.50;;;6.20;;
82705;SDS011;72428;41.978;21.464;2023-09-19T14:07:53;16.20;;;8.18;;
82705;SDS011;72428;41.978;21.464;2023-09-19T14:10:24;11.27;;;8.32;;
82705;SDS011;72428;41.978;21.464;2023-09-19T14:12:52;19.00;;;7.55;;
82705;SDS011;72428;41.978;21.464;2023-09-19T14:15:19;11.80;;;7.22;;
82705;SDS011;72428;41.978;21.464;2023-09-19T14:17:45;10.65;;;7.10;;
82705;SDS011;72428;41.978;21.464;2023-09-19T14:20:11;15.43;;;6.85;;
82705;SDS011;72428;41.978;21.464;2023-09-19T14:22:37;15.50;;;7.25;;
82705;SDS011;72428;41.978;21.464;2023-09-19T14:25:04;19.83;;;7.78;;
82705;SDS011;72428;41.978;21.464;2023-09-19T14:27:30;12.35;;;7.07;;
82705;SDS011;72428;41.978;21.464;2023-09-19T14:29:57;10.75;;;6.20;;
82705;SDS011;72428;41.978;21.464;2023-09-19T14:32:23;10.60;;;5.95;;
82705;SDS011;72428;41.978;21.464;2023-09-19T14:34:52;12.32;;;6.88;;
82705;SDS011;72428;41.978;21.464;2023-09-19T14:37:18;14.57;;;6.90;;
82705;SDS011;72428;41.978;21.464;2023-09-19T14:39:46;14.45;;;7.28;;
82705;SDS011;72428;41.978;21.464;2023-09-19T14:42:13;29.77;;;7.68;;
82705;SDS011;72428;41.978;21.464;2023-09-19T14:47:08;32.10;;;13.57;;
82705;SDS011;72428;41.978;21.464;2023-09-19T14:49:34;19.65;;;8.15;;
82705;SDS011;72428;41.978;21.464;2023-09-19T14:52:03;27.48;;;9.80;;
82705;SDS011;72428;41.978;21.464;2023-09-19T14:54:30;46.60;;;17.60;;
82705;SDS011;72428;41.978;21.464;2023-09-19T14:56:56;25.00;;;10.38;;
82705;SDS011;72428;41.978;21.464;2023-09-19T14:59:32;27.50;;;8.77;;
82705;SDS011;72428;41.978;21.464;2023-09-19T15:01:59;14.02;;;7.32;;
82705;SDS011;72428;41.978;21.464;2023-09-19T15:04:25;26.77;;;18.95;;
82705;SDS011;72428;41.978;21.464;2023-09-19T15:06:52;15.13;;;7.55;;
82705;SDS011;72428;41.978;21.464;2023-09-19T15:09:20;26.13;;;12.05;;
82705;SDS011;72428;41.978;21.464;2023-09-19T15:11:49;21.15;;;9.63;;
82705;SDS011;72428;41.978;21.464;2023-09-19T15:14:15;21.67;;;8.68;;
82705;SDS011;72428;41.978;21.464;2023-09-19T15:16:41;16.10;;;8.02;;
82705;SDS011;72428;41.978;21.464;2023-09-19T15:19:08;20.17;;;8.85;;
82705;SDS011;72428;41.978;21.464;2023-09-19T15:21:35;16.48;;;8.95;;